createdAt,value
2018-07-27T00:00:29.208Z,24.35
2018-07-27T00:01:29.181Z,24.26
2018-07-27T00:02:29.148Z,24.10
2018-07-27T00:03:29.125Z,23.98
2018-07-27T00:04:29.093Z,23.87
2018-07-27T00:05:29.064Z,23.78
2018-07-27T00:06:29.036Z,23.73
2018-07-27T00:07:29.002Z,23.58
2018-07-27T00:08:28.974Z,23.47
2018-07-27T00:09:28.947Z,23.47
2018-07-27T00:10:28.919Z,23.31
2018-07-27T00:11:28.887Z,23.36
2018-07-27T00:12:28.858Z,23.27
2018-07-27T00:13:28.829Z,23.10
2018-07-27T00:14:28.796Z,23.09
2018-07-27T00:15:28.774Z,23.08
2018-07-27T00:16:28.743Z,23.12
2018-07-27T00:17:28.714Z,23.25
2018-07-27T00:18:28.689Z,23.27
2018-07-27T00:19:28.650Z,23.24
2018-07-27T00:20:28.623Z,23.40
2018-07-27T00:21:28.593Z,23.46
2018-07-27T00:22:28.562Z,23.51
2018-07-27T00:23:28.538Z,23.55
2018-07-27T00:24:28.511Z,23.62
2018-07-27T00:25:28.476Z,23.66
2018-07-27T00:26:28.443Z,23.78
2018-07-27T00:27:28.421Z,23.77
2018-07-27T00:28:28.388Z,23.84
2018-07-27T00:29:28.363Z,23.87
2018-07-27T00:30:28.330Z,23.99
2018-07-27T00:31:28.296Z,24.08
2018-07-27T00:32:28.269Z,24.17
2018-07-27T00:33:28.240Z,24.10
2018-07-27T00:34:28.211Z,24.14
2018-07-27T00:35:28.188Z,24.13
2018-07-27T00:36:28.156Z,24.14
2018-07-27T00:37:28.122Z,24.18
2018-07-27T00:38:28.095Z,24.21
2018-07-27T00:39:28.059Z,24.20
2018-07-27T00:40:28.034Z,24.24
2018-07-27T00:41:28.005Z,24.26
2018-07-27T00:42:27.979Z,24.30
2018-07-27T00:43:27.942Z,24.26
2018-07-27T00:44:27.915Z,24.35
2018-07-27T00:45:27.885Z,24.42
2018-07-27T00:46:27.855Z,24.39
2018-07-27T00:47:27.829Z,24.38
2018-07-27T00:48:27.798Z,24.33
2018-07-27T00:49:27.769Z,24.38
2018-07-27T00:50:27.742Z,24.38
2018-07-27T00:51:27.706Z,24.33
2018-07-27T00:52:27.678Z,24.32
2018-07-27T00:53:27.648Z,24.36
2018-07-27T00:54:27.617Z,24.40
2018-07-27T00:55:27.593Z,24.42
2018-07-27T00:56:27.563Z,24.43
2018-07-27T00:57:27.531Z,24.45
2018-07-27T00:58:27.499Z,24.38
2018-07-27T00:59:27.475Z,24.39
2018-07-27T01:00:27.445Z,24.42
2018-07-27T01:01:27.417Z,24.38
2018-07-27T01:02:27.387Z,24.42
2018-07-27T01:03:27.353Z,24.35
2018-07-27T01:04:27.325Z,24.38
2018-07-27T01:05:27.294Z,24.33
2018-07-27T01:06:27.265Z,24.29
2018-07-27T01:07:27.241Z,24.38
2018-07-27T01:08:27.208Z,24.24
2018-07-27T01:09:27.179Z,24.35
2018-07-27T01:10:27.151Z,24.21
2018-07-27T01:11:27.118Z,24.23
2018-07-27T01:12:27.090Z,24.24
2018-07-27T01:13:27.062Z,24.28
2018-07-27T01:14:27.035Z,24.17
2018-07-27T01:15:26.998Z,24.14
2018-07-27T01:16:26.972Z,24.16
2018-07-27T01:17:26.941Z,24.16
2018-07-27T01:18:26.911Z,24.13
2018-07-27T01:19:26.888Z,24.17
2018-07-27T01:20:26.854Z,24.20
2018-07-27T01:21:26.826Z,24.16
2018-07-27T01:22:26.796Z,24.17
2018-07-27T01:23:26.761Z,24.18
2018-07-27T01:24:26.733Z,24.16
2018-07-27T01:25:26.704Z,24.18
2018-07-27T01:26:26.672Z,24.16
2018-07-27T01:27:26.647Z,24.16
2018-07-27T01:28:26.617Z,24.16
2018-07-27T01:29:26.588Z,24.17
2018-07-27T01:30:26.557Z,24.17
2018-07-27T01:31:26.531Z,24.10
2018-07-27T01:32:26.501Z,24.14
2018-07-27T01:33:26.470Z,24.16
2018-07-27T01:34:26.442Z,24.14
2018-07-27T01:35:26.406Z,24.13
2018-07-27T01:36:26.379Z,24.16
2018-07-27T01:37:26.349Z,24.11
2018-07-27T01:38:26.336Z,24.02
2018-07-27T01:39:26.295Z,24.11
2018-07-27T01:40:26.264Z,24.14
2018-07-27T01:41:26.234Z,23.99
2018-07-27T01:42:26.207Z,23.99
2018-07-27T01:43:26.171Z,23.98
2018-07-27T01:44:26.144Z,23.98
2018-07-27T01:45:26.115Z,24.02
2018-07-27T01:46:26.088Z,23.99
2018-07-27T01:47:26.054Z,24.01
2018-07-27T01:48:26.024Z,24.01
2018-07-27T01:49:25.994Z,24.02
2018-07-27T01:50:25.961Z,24.06
2018-07-27T01:51:25.939Z,24.03
2018-07-27T01:52:25.907Z,23.98
2018-07-27T01:53:25.878Z,24.03
2018-07-27T01:54:25.849Z,24.08
2018-07-27T01:55:25.814Z,24.17
2018-07-27T01:56:25.787Z,24.17
2018-07-27T01:57:25.758Z,24.17
2018-07-27T01:58:25.726Z,24.17
2018-07-27T01:59:25.702Z,24.17
2018-07-27T02:00:25.670Z,24.13
2018-07-27T02:01:25.639Z,24.14
2018-07-27T02:02:25.608Z,24.20
2018-07-27T02:03:25.583Z,24.16
2018-07-27T02:04:25.551Z,24.30
2018-07-27T02:05:25.522Z,24.18
2018-07-27T02:06:25.495Z,24.16
2018-07-27T02:07:25.457Z,24.21
2018-07-27T02:08:25.436Z,24.21
2018-07-27T02:09:25.401Z,24.17
2018-07-27T02:10:25.369Z,24.21
2018-07-27T02:11:25.345Z,24.13
2018-07-27T02:12:25.314Z,24.16
2018-07-27T02:13:25.284Z,24.14
2018-07-27T02:14:25.258Z,24.13
2018-07-27T02:15:25.221Z,24.08
2018-07-27T02:16:25.193Z,24.02
2018-07-27T02:17:25.167Z,24.02
2018-07-27T02:18:25.186Z,23.98
2018-07-27T02:19:25.103Z,24.02
2018-07-27T02:20:25.074Z,23.93
2018-07-27T02:21:25.045Z,24.01
2018-07-27T02:22:25.013Z,23.92
2018-07-27T02:23:24.990Z,23.95
2018-07-27T02:24:24.969Z,23.88
2018-07-27T02:25:24.929Z,23.91
2018-07-27T02:26:24.900Z,23.86
2018-07-27T02:27:24.864Z,23.91
2018-07-27T02:28:24.836Z,23.87
2018-07-27T02:29:24.807Z,23.87
2018-07-27T02:30:24.776Z,23.87
2018-07-27T02:31:24.753Z,23.87
2018-07-27T02:32:24.724Z,23.87
2018-07-27T02:33:24.689Z,23.87
2018-07-27T02:34:24.656Z,23.91
2018-07-27T02:35:24.632Z,23.92
2018-07-27T02:36:24.601Z,23.92
2018-07-27T02:37:24.579Z,23.93
2018-07-27T02:38:24.545Z,23.81
2018-07-27T02:39:24.509Z,23.84
2018-07-27T02:40:24.481Z,23.86
2018-07-27T02:41:24.452Z,23.81
2018-07-27T02:42:24.419Z,23.77
2018-07-27T02:43:24.396Z,23.69
2018-07-27T02:44:24.364Z,23.73
2018-07-27T02:45:24.337Z,23.69
2018-07-27T02:46:24.306Z,23.71
2018-07-27T02:47:24.274Z,23.68
2018-07-27T02:48:24.242Z,23.62
2018-07-27T02:49:24.217Z,23.69
2018-07-27T02:50:24.187Z,23.69
2018-07-27T02:51:24.229Z,23.74
2018-07-27T02:52:24.123Z,23.68
2018-07-27T02:53:24.094Z,23.62
2018-07-27T02:54:24.062Z,23.61
2018-07-27T02:55:24.038Z,23.56
2018-07-27T02:56:24.008Z,23.61
2018-07-27T02:57:23.979Z,23.59
2018-07-27T02:58:23.948Z,23.58
2018-07-27T02:59:23.913Z,23.63
2018-07-27T03:00:23.885Z,23.59
2018-07-27T03:01:23.855Z,23.54
2018-07-27T03:02:23.828Z,23.51
2018-07-27T03:03:23.799Z,23.56
2018-07-27T03:04:23.771Z,23.51
2018-07-27T03:05:23.737Z,23.50
2018-07-27T03:06:23.706Z,23.48
2018-07-27T03:07:23.680Z,23.37
2018-07-27T03:08:23.650Z,23.43
2018-07-27T03:09:23.620Z,23.50
2018-07-27T03:10:23.591Z,23.40
2018-07-27T03:11:23.554Z,23.44
2018-07-27T03:12:23.527Z,23.37
2018-07-27T03:13:23.497Z,23.25
2018-07-27T03:14:23.468Z,23.27
2018-07-27T03:15:23.443Z,23.32
2018-07-27T03:16:23.413Z,23.21
2018-07-27T03:17:23.380Z,23.34
2018-07-27T03:18:23.352Z,23.28
2018-07-27T03:19:23.316Z,23.28
2018-07-27T03:20:23.287Z,23.25
2018-07-27T03:21:23.260Z,23.24
2018-07-27T03:22:23.232Z,23.25
2018-07-27T03:23:23.196Z,23.23
2018-07-27T03:24:23.168Z,23.23
2018-07-27T03:25:23.138Z,23.13
2018-07-27T03:26:23.105Z,23.17
2018-07-27T03:27:23.081Z,23.12
2018-07-27T03:28:23.050Z,23.12
2018-07-27T03:29:23.019Z,23.13
2018-07-27T03:30:22.993Z,23.17
2018-07-27T03:31:22.955Z,23.06
2018-07-27T03:32:22.927Z,23.10
2018-07-27T03:33:22.898Z,23.03
2018-07-27T03:34:22.865Z,23.13
2018-07-27T03:35:22.841Z,23.08
2018-07-27T03:36:22.809Z,23.06
2018-07-27T03:37:22.779Z,23.10
2018-07-27T03:38:22.745Z,23.05
2018-07-27T03:39:22.721Z,23.08
2018-07-27T03:40:22.689Z,23.08
2018-07-27T03:41:22.667Z,23.06
2018-07-27T03:42:22.641Z,22.93
2018-07-27T03:43:22.598Z,22.93
2018-07-27T03:44:22.566Z,22.81
2018-07-27T03:45:22.537Z,22.85
2018-07-27T03:46:22.503Z,22.78
2018-07-27T03:47:22.479Z,22.78
2018-07-27T03:48:22.450Z,22.73
2018-07-27T03:49:22.418Z,22.69
2018-07-27T03:50:22.391Z,22.72
2018-07-27T03:51:22.358Z,22.80
2018-07-27T04:08:42.234Z,21.96
2018-07-27T04:09:42.141Z,21.92
2018-07-27T04:10:42.104Z,21.75
2018-07-27T04:11:42.064Z,21.67
2018-07-27T04:12:42.030Z,21.43
2018-07-27T04:13:42.000Z,21.40
2018-07-27T04:14:41.966Z,21.40
2018-07-27T04:15:41.938Z,21.35
2018-07-27T04:16:41.896Z,21.30
2018-07-27T04:17:41.864Z,21.40
2018-07-27T04:18:41.834Z,21.48
2018-07-27T04:19:41.804Z,21.40
2018-07-27T04:20:41.774Z,21.62
2018-07-27T04:21:41.736Z,21.60
2018-07-27T04:22:41.703Z,21.70
2018-07-27T04:23:41.673Z,21.80
2018-07-27T04:24:41.639Z,21.82
2018-07-27T04:25:41.607Z,21.82
2018-07-27T04:26:41.584Z,21.69
2018-07-27T04:27:41.553Z,21.64
2018-07-27T04:28:41.522Z,21.70
2018-07-27T04:29:41.483Z,21.67
2018-07-27T04:30:41.452Z,21.75
2018-07-27T04:31:41.417Z,21.75
2018-07-27T04:32:41.396Z,21.76
2018-07-27T04:33:41.358Z,21.69
2018-07-27T04:34:41.327Z,21.70
2018-07-27T04:35:41.361Z,21.69
2018-07-27T04:36:41.267Z,21.62
2018-07-27T04:37:41.232Z,21.75
2018-07-27T04:38:41.203Z,21.69
2018-07-27T04:39:41.173Z,21.72
2018-07-27T04:40:41.144Z,21.76
2018-07-27T04:41:41.109Z,21.64
2018-07-27T04:42:41.076Z,21.72
2018-07-27T04:43:41.043Z,21.61
2018-07-27T04:44:41.022Z,21.70
2018-07-27T04:45:40.983Z,21.64
2018-07-27T04:46:40.954Z,21.70
2018-07-27T04:47:40.928Z,21.60
2018-07-27T04:48:40.890Z,21.67
2018-07-27T04:49:40.859Z,21.76
2018-07-27T04:50:40.830Z,21.75
2018-07-27T04:51:40.802Z,21.72
2018-07-27T04:52:40.772Z,21.72
2018-07-27T04:53:40.737Z,21.82
2018-07-27T04:54:40.704Z,21.89
2018-07-27T04:55:40.673Z,21.85
2018-07-27T04:56:40.714Z,21.95
2018-07-27T04:57:40.617Z,21.96
2018-07-27T04:58:40.584Z,22.04
2018-07-27T04:59:40.559Z,22.06
2018-07-27T05:00:40.525Z,22.07
2018-07-27T05:01:40.492Z,22.13
2018-07-27T05:02:40.460Z,22.18
2018-07-27T05:03:40.433Z,22.26
2018-07-27T05:04:40.432Z,22.30
2018-07-27T05:05:40.370Z,22.22
2018-07-27T05:06:40.337Z,22.28
2018-07-27T05:07:40.307Z,22.25
2018-07-27T05:08:40.274Z,22.30
2018-07-27T05:09:40.245Z,22.33
2018-07-27T05:10:40.216Z,22.33
2018-07-27T05:11:40.187Z,22.36
2018-07-27T05:12:40.162Z,22.32
2018-07-27T05:13:40.126Z,22.41
2018-07-27T05:14:40.093Z,22.35
2018-07-27T05:15:40.061Z,22.41
2018-07-27T05:16:40.034Z,22.53
2018-07-27T05:17:40.001Z,22.54
2018-07-27T05:18:39.972Z,22.59
2018-07-27T05:19:39.944Z,22.63
2018-07-27T05:20:39.908Z,22.73
2018-07-27T05:21:39.878Z,22.76
2018-07-27T05:22:39.850Z,22.70
2018-07-27T05:23:39.822Z,22.72
2018-07-27T05:24:39.860Z,22.83
2018-07-27T05:25:39.759Z,22.83
2018-07-27T05:26:39.726Z,22.83
2018-07-27T05:27:39.695Z,22.98
2018-07-27T05:28:39.667Z,23.05
2018-07-27T05:29:39.639Z,23.13
2018-07-27T05:30:39.608Z,23.09
2018-07-27T05:31:39.609Z,23.08
2018-07-27T05:32:39.551Z,23.31
2018-07-27T05:33:39.521Z,23.25
2018-07-27T05:34:39.488Z,23.32
2018-07-27T05:35:39.453Z,23.31
2018-07-27T05:36:39.431Z,23.34
2018-07-27T05:37:39.396Z,23.43
2018-07-27T05:38:39.364Z,23.51
2018-07-27T05:39:39.332Z,23.55
2018-07-27T05:40:39.302Z,23.59
2018-07-27T05:41:39.275Z,23.73
2018-07-27T05:42:39.246Z,23.73
2018-07-27T05:43:39.219Z,23.84
2018-07-27T05:44:39.190Z,23.84
2018-07-27T05:45:39.157Z,23.93
2018-07-27T05:46:39.125Z,24.02
2018-07-27T05:47:39.096Z,24.08
2018-07-27T05:48:39.121Z,24.11
2018-07-27T05:49:39.034Z,24.28
2018-07-27T05:50:39.007Z,24.24
2018-07-27T05:51:38.980Z,24.33
2018-07-27T05:52:38.996Z,24.38
2018-07-27T05:53:38.917Z,24.45
2018-07-27T05:54:38.888Z,24.50
2018-07-27T05:55:38.861Z,24.57
2018-07-27T05:56:38.831Z,24.68
2018-07-27T05:57:38.800Z,24.60
2018-07-27T05:58:38.768Z,24.74
2018-07-27T05:59:38.742Z,24.88
2018-07-27T06:00:38.715Z,24.91
2018-07-27T06:01:38.684Z,24.99
2018-07-27T06:02:38.686Z,25.08
2018-07-27T06:03:38.661Z,25.13
2018-07-27T06:04:38.592Z,25.17
2018-07-27T06:05:38.564Z,25.25
2018-07-27T06:06:38.536Z,25.33
2018-07-27T06:07:38.511Z,25.38
2018-07-27T06:08:38.527Z,25.40
2018-07-27T06:09:38.447Z,25.47
2018-07-27T06:10:38.419Z,25.51
2018-07-27T06:11:38.396Z,25.63
2018-07-27T06:12:38.364Z,25.59
2018-07-27T06:13:38.333Z,25.83
2018-07-27T06:14:38.310Z,25.81
2018-07-27T06:15:38.277Z,25.91
2018-07-27T06:16:38.244Z,25.95
2018-07-27T06:17:38.215Z,26.02
2018-07-27T06:18:38.190Z,26.19
2018-07-27T06:19:38.164Z,26.28
2018-07-27T06:20:38.133Z,26.23
2018-07-27T06:21:38.103Z,26.22
2018-07-27T06:22:38.074Z,26.26
2018-07-27T06:23:38.044Z,26.22
2018-07-27T06:24:38.021Z,26.23
2018-07-27T06:25:38.003Z,26.23
2018-07-27T06:26:37.958Z,26.13
2018-07-27T06:27:37.930Z,26.26
2018-07-27T06:28:37.900Z,26.25
2018-07-27T06:29:37.874Z,26.36
2018-07-27T06:30:37.847Z,26.38
2018-07-27T06:31:37.820Z,26.43
2018-07-27T06:32:37.791Z,26.43
2018-07-27T06:33:37.761Z,26.59
2018-07-27T06:34:37.734Z,26.68
2018-07-27T06:35:37.701Z,26.73
2018-07-27T06:36:37.676Z,26.89
2018-07-27T06:37:37.647Z,26.88
2018-07-27T06:38:37.622Z,26.97
2018-07-27T06:39:37.596Z,27.14
2018-07-27T06:40:37.562Z,27.10
2018-07-27T06:41:37.535Z,27.29
2018-07-27T06:42:37.512Z,27.33
2018-07-27T06:43:37.482Z,27.37
2018-07-27T06:44:37.456Z,27.44
2018-07-27T06:45:37.424Z,27.55
2018-07-27T06:46:37.395Z,27.63
2018-07-27T06:47:37.365Z,27.67
2018-07-27T06:48:37.337Z,27.71
2018-07-27T06:49:37.310Z,27.82
2018-07-27T06:50:37.284Z,27.78
2018-07-27T06:51:37.259Z,27.86
2018-07-27T06:52:37.235Z,27.92
2018-07-27T06:53:37.202Z,27.92
2018-07-27T06:54:37.174Z,27.90
2018-07-27T06:55:37.143Z,28.02
2018-07-27T06:56:37.122Z,27.95
2018-07-27T06:57:37.092Z,28.14
2018-07-27T06:58:37.062Z,28.14
2018-07-27T06:59:37.032Z,28.10
2018-07-27T07:00:37.005Z,28.26
2018-07-27T07:01:36.978Z,28.22
2018-07-27T07:02:36.954Z,28.26
2018-07-27T07:03:36.931Z,28.35
2018-07-27T07:04:36.901Z,28.33
2018-07-27T07:05:36.870Z,28.48
2018-07-27T07:06:36.841Z,28.54
2018-07-27T07:07:36.812Z,28.54
2018-07-27T07:08:36.785Z,28.63
2018-07-27T07:09:36.757Z,28.63
2018-07-27T07:10:36.735Z,28.72
2018-07-27T07:11:36.711Z,28.78
2018-07-27T07:12:36.678Z,28.78
2018-07-27T07:13:36.650Z,28.85
2018-07-27T07:14:36.686Z,28.85
2018-07-27T07:15:36.602Z,28.88
2018-07-27T07:16:36.575Z,29.02
2018-07-27T07:17:36.544Z,29.02
2018-07-27T07:18:36.517Z,28.98
2018-07-27T07:19:36.489Z,29.05
2018-07-27T07:20:36.458Z,29.07
2018-07-27T07:21:36.434Z,29.14
2018-07-27T07:22:36.408Z,29.08
2018-07-27T07:23:36.383Z,29.27
2018-07-27T07:24:36.357Z,29.22
2018-07-27T07:25:36.441Z,29.24
2018-07-27T07:26:36.298Z,29.31
2018-07-27T07:27:36.269Z,29.27
2018-07-27T07:28:36.248Z,29.23
2018-07-27T07:29:36.220Z,29.32
2018-07-27T07:30:36.192Z,29.32
2018-07-27T07:31:36.162Z,29.34
2018-07-27T07:32:36.140Z,29.38
2018-07-27T07:33:36.111Z,29.41
2018-07-27T07:34:36.086Z,29.53
2018-07-27T07:35:36.061Z,29.61
2018-07-27T07:36:36.034Z,29.54
2018-07-27T07:37:36.006Z,29.47
2018-07-27T07:38:35.977Z,29.44
2018-07-27T07:39:35.947Z,29.53
2018-07-27T07:40:35.922Z,29.54
2018-07-27T07:41:35.898Z,29.47
2018-07-27T07:42:35.878Z,29.54
2018-07-27T07:43:35.849Z,29.53
2018-07-27T07:44:35.816Z,29.68
2018-07-27T07:45:35.792Z,29.63
2018-07-27T07:46:35.765Z,29.82
2018-07-27T07:47:35.749Z,29.81
2018-07-27T07:48:35.716Z,29.65
2018-07-27T07:49:35.685Z,29.69
2018-07-27T07:50:35.657Z,29.69
2018-07-27T07:51:35.631Z,29.71
2018-07-27T07:52:35.607Z,29.65
2018-07-27T07:53:35.577Z,29.65
2018-07-27T07:54:35.555Z,29.63
2018-07-27T07:55:35.538Z,29.86
2018-07-27T07:56:35.504Z,29.84
2018-07-27T07:57:35.474Z,29.91
2018-07-27T07:58:35.496Z,29.82
2018-07-27T07:59:35.421Z,29.87
2018-07-27T08:00:35.404Z,29.81
2018-07-27T08:01:35.369Z,29.86
2018-07-27T08:02:35.347Z,29.86
2018-07-27T08:03:35.313Z,29.84
2018-07-27T08:04:35.288Z,29.88
2018-07-27T08:05:35.279Z,29.84
2018-07-27T08:06:35.238Z,29.81
2018-07-27T08:07:35.217Z,29.82
2018-07-27T08:08:35.188Z,29.79
2018-07-27T08:09:35.159Z,29.94
2018-07-27T08:10:35.135Z,29.82
2018-07-27T08:11:35.106Z,29.87
2018-07-27T08:12:35.081Z,29.94
2018-07-27T08:13:35.054Z,29.81
2018-07-27T08:14:35.030Z,29.95
2018-07-27T08:15:35.006Z,29.93
2018-07-27T08:16:34.972Z,29.94
2018-07-27T08:17:34.947Z,30.06
2018-07-27T08:18:34.926Z,30.19
2018-07-27T08:19:34.902Z,30.13
2018-07-27T08:20:34.877Z,30.27
2018-07-27T08:21:34.845Z,30.32
2018-07-27T08:22:34.818Z,30.35
2018-07-27T08:23:34.791Z,30.32
2018-07-27T08:24:34.768Z,30.31
2018-07-27T08:25:34.739Z,30.47
2018-07-27T08:26:34.724Z,30.50
2018-07-27T08:27:34.691Z,30.57
2018-07-27T08:28:34.666Z,30.69
2018-07-27T08:29:34.643Z,30.68
2018-07-27T08:30:34.610Z,30.80
2018-07-27T08:31:34.583Z,30.80
2018-07-27T08:32:34.562Z,30.77
2018-07-27T08:33:34.536Z,30.81
2018-07-27T08:34:34.511Z,30.81
2018-07-27T08:35:34.479Z,30.90
2018-07-27T08:36:34.453Z,30.91
2018-07-27T08:37:34.434Z,30.83
2018-07-27T08:38:34.407Z,30.84
2018-07-27T08:39:34.443Z,30.75
2018-07-27T08:40:34.355Z,30.78
2018-07-27T08:41:34.332Z,30.80
2018-07-27T08:42:34.300Z,30.84
2018-07-27T08:43:34.272Z,30.99
2018-07-27T08:44:34.246Z,31.03
2018-07-27T08:45:34.223Z,30.97
2018-07-27T08:46:34.199Z,31.07
2018-07-27T08:47:34.176Z,31.05
2018-07-27T08:48:34.144Z,30.87
2018-07-27T08:49:34.119Z,30.87
2018-07-27T08:50:34.097Z,30.90
2018-07-27T08:51:34.073Z,30.90
2018-07-27T08:52:34.048Z,31.03
2018-07-27T08:53:34.020Z,30.99
2018-07-27T08:54:33.992Z,31.14
2018-07-27T08:55:33.964Z,31.24
2018-07-27T08:56:33.939Z,31.33
2018-07-27T08:57:33.914Z,31.37
2018-07-27T08:58:33.894Z,31.33
2018-07-27T08:59:33.871Z,31.40
2018-07-27T09:00:33.843Z,31.29
2018-07-27T09:01:33.814Z,31.29
2018-07-27T09:02:33.795Z,31.24
2018-07-27T09:03:33.760Z,31.31
2018-07-27T09:04:33.740Z,31.29
2018-07-27T09:05:33.712Z,31.29
2018-07-27T09:06:33.688Z,31.31
2018-07-27T09:07:33.656Z,31.31
2018-07-27T09:08:33.632Z,31.44
2018-07-27T09:09:33.607Z,31.44
2018-07-27T09:10:33.585Z,31.55
2018-07-27T09:11:33.561Z,31.66
2018-07-27T09:12:33.535Z,31.66
2018-07-27T09:13:33.512Z,31.71
2018-07-27T09:14:33.480Z,31.62
2018-07-27T09:15:33.454Z,31.55
2018-07-27T09:16:33.435Z,31.59
2018-07-27T09:17:33.407Z,31.54
2018-07-27T09:18:33.381Z,31.47
2018-07-27T09:19:33.357Z,31.54
2018-07-27T09:20:33.330Z,31.51
2018-07-27T09:21:33.303Z,31.58
2018-07-27T09:22:33.279Z,31.65
2018-07-27T09:23:33.261Z,31.71
2018-07-27T09:24:33.284Z,31.85
2018-07-27T09:25:33.203Z,31.81
2018-07-27T09:26:33.177Z,31.77
2018-07-27T09:27:33.152Z,31.64
2018-07-27T09:28:33.126Z,31.70
2018-07-27T09:29:33.100Z,31.81
2018-07-27T09:30:33.079Z,31.87
2018-07-27T09:31:33.054Z,31.81
2018-07-27T09:32:33.029Z,31.87
2018-07-27T09:33:33.001Z,31.87
2018-07-27T09:34:32.973Z,31.77
2018-07-27T09:35:33.016Z,31.84
2018-07-27T09:36:32.936Z,31.94
2018-07-27T09:37:32.902Z,31.96
2018-07-27T09:38:32.873Z,31.90
2018-07-27T09:39:32.849Z,31.93
2018-07-27T09:40:32.873Z,31.92
2018-07-27T09:41:32.798Z,31.93
2018-07-27T09:42:32.777Z,31.92
2018-07-27T09:43:32.754Z,31.90
2018-07-27T09:44:32.728Z,31.97
2018-07-27T09:45:32.699Z,32.12
2018-07-27T09:46:32.677Z,32.09
2018-07-27T09:47:32.646Z,32.12
2018-07-27T09:48:32.621Z,32.30
2018-07-27T09:49:32.597Z,32.26
2018-07-27T09:50:32.576Z,32.26
2018-07-27T09:51:32.577Z,32.23
2018-07-27T09:52:32.520Z,32.14
2018-07-27T09:53:32.496Z,32.26
2018-07-27T09:54:32.475Z,32.38
2018-07-27T09:55:32.452Z,32.37
2018-07-27T09:56:32.430Z,32.52
2018-07-27T09:57:32.505Z,32.40
2018-07-27T09:58:32.372Z,32.37
2018-07-27T09:59:32.344Z,32.49
2018-07-27T10:00:32.320Z,32.46
2018-07-27T10:01:32.298Z,32.51
2018-07-27T10:02:32.274Z,32.65
2018-07-27T10:03:32.251Z,32.71
2018-07-27T10:04:32.226Z,32.73
2018-07-27T10:05:32.199Z,32.74
2018-07-27T10:06:32.174Z,32.77
2018-07-27T10:07:32.145Z,32.77
2018-07-27T10:21:33.380Z,32.67
2018-07-27T10:22:33.318Z,32.65
2018-07-27T10:23:33.285Z,32.70
2018-07-27T10:24:33.255Z,32.77
2018-07-27T10:25:33.224Z,32.74
2018-07-27T10:26:33.201Z,32.77
2018-07-27T10:27:33.176Z,32.78
2018-07-27T10:28:33.151Z,32.82
2018-07-27T10:29:33.124Z,32.86
2018-07-27T10:30:33.092Z,32.92
2018-07-27T10:31:33.067Z,32.77
2018-07-27T10:32:33.040Z,32.78
2018-07-27T10:33:33.019Z,32.89
2018-07-27T10:34:32.991Z,32.97
2018-07-27T10:35:32.966Z,32.96
2018-07-27T10:36:32.945Z,32.90
2018-07-27T10:37:32.911Z,32.85
2018-07-27T10:38:32.920Z,32.82
2018-07-27T10:39:32.859Z,32.71
2018-07-27T10:40:32.836Z,32.56
2018-07-27T10:41:32.817Z,32.55
2018-07-27T10:42:32.789Z,32.53
2018-07-27T10:43:32.762Z,32.56
2018-07-27T10:44:32.733Z,32.63
2018-07-27T10:45:32.707Z,32.75
2018-07-27T10:46:32.687Z,32.85
2018-07-27T10:47:32.663Z,32.68
2018-07-27T10:48:32.637Z,32.71
2018-07-27T10:49:32.606Z,32.73
2018-07-27T10:50:32.583Z,32.74
2018-07-27T10:51:32.564Z,32.71
2018-07-27T10:52:32.536Z,32.74
2018-07-27T10:53:32.517Z,32.71
2018-07-27T10:54:32.494Z,32.68
2018-07-27T10:55:32.461Z,33.00
2018-07-27T10:56:32.502Z,33.07
2018-07-27T10:57:32.409Z,33.23
2018-07-27T10:58:32.385Z,33.36
2018-07-27T10:59:32.360Z,33.47
2018-07-27T11:00:32.339Z,33.37
2018-07-27T11:01:32.316Z,33.14
2018-07-27T11:02:32.316Z,33.08
2018-07-27T11:03:32.265Z,33.17
2018-07-27T11:04:32.240Z,33.17
2018-07-27T11:05:32.219Z,33.15
2018-07-27T11:06:32.193Z,33.14
2018-07-27T11:07:32.166Z,33.22
2018-07-27T11:08:32.139Z,33.28
2018-07-27T11:09:32.116Z,33.24
2018-07-27T11:10:32.096Z,33.28
2018-07-27T11:11:32.066Z,33.34
2018-07-27T11:12:32.044Z,33.37
2018-07-27T11:13:32.026Z,33.28
2018-07-27T11:14:31.998Z,33.24
2018-07-27T11:15:31.970Z,33.37
2018-07-27T11:16:31.946Z,33.17
2018-07-27T11:17:31.997Z,33.30
2018-07-27T11:18:31.900Z,33.52
2018-07-27T11:19:31.875Z,33.49
2018-07-27T11:20:31.846Z,33.46
2018-07-27T11:21:31.820Z,33.62
2018-07-27T11:22:31.801Z,33.47
2018-07-27T11:23:31.772Z,33.61
2018-07-27T11:24:31.754Z,33.73
2018-07-27T11:25:31.733Z,33.59
2018-07-27T11:26:31.707Z,33.47
2018-07-27T11:27:31.677Z,33.32
2018-07-27T11:28:31.652Z,33.36
2018-07-27T11:29:31.625Z,33.32
2018-07-27T11:30:31.603Z,33.34
2018-07-27T11:31:31.578Z,33.37
2018-07-27T11:32:31.559Z,33.36
2018-07-27T11:33:31.541Z,33.36
2018-07-27T11:34:31.504Z,33.22
2018-07-27T11:35:31.481Z,33.07
2018-07-27T11:36:31.460Z,33.14
2018-07-27T11:37:33.238Z,33.11
2018-07-27T11:38:31.412Z,33.17
2018-07-27T11:39:31.386Z,33.11
2018-07-27T11:40:31.360Z,33.15
2018-07-27T11:41:31.335Z,33.34
2018-07-27T11:42:31.317Z,33.50
2018-07-27T11:43:31.288Z,33.50
2018-07-27T11:44:31.267Z,33.52
2018-07-27T11:45:31.245Z,33.43
2018-07-27T11:46:31.220Z,33.49
2018-07-27T11:47:31.196Z,33.52
2018-07-27T11:48:31.177Z,33.43
2018-07-27T11:49:31.171Z,33.32
2018-07-27T11:50:31.123Z,33.40
2018-07-27T11:51:31.106Z,33.34
2018-07-27T11:52:31.072Z,33.49
2018-07-27T11:53:31.044Z,33.37
2018-07-27T11:54:31.026Z,33.50
2018-07-27T11:55:30.997Z,33.61
2018-07-27T11:56:30.975Z,33.59
2018-07-27T11:57:30.953Z,33.57
2018-07-27T11:58:30.928Z,33.46
2018-07-27T11:59:30.902Z,33.47
2018-07-27T12:00:30.877Z,33.58
2018-07-27T12:01:30.855Z,33.50
2018-07-27T12:02:30.826Z,33.58
2018-07-27T12:03:30.805Z,33.79
2018-07-27T12:04:30.781Z,34.03
2018-07-27T12:05:30.758Z,33.89
2018-07-27T12:06:30.729Z,33.95
2018-07-27T12:07:30.706Z,34.06
2018-07-27T12:08:30.686Z,34.13
2018-07-27T12:09:30.665Z,34.06
2018-07-27T12:10:30.639Z,34.08
2018-07-27T12:11:30.615Z,33.90
2018-07-27T12:12:30.586Z,33.98
2018-07-27T12:13:30.562Z,33.90
2018-07-27T12:14:30.680Z,33.80
2018-07-27T12:15:30.513Z,33.74
2018-07-27T12:16:30.492Z,33.61
2018-07-27T12:17:30.472Z,33.46
2018-07-27T12:18:30.449Z,33.47
2018-07-27T12:19:30.420Z,33.64
2018-07-27T12:20:30.446Z,33.68
2018-07-27T12:21:30.446Z,33.68
2018-07-27T12:22:30.350Z,33.67
2018-07-27T12:23:30.324Z,33.59
2018-07-27T12:24:30.300Z,33.62
2018-07-27T12:25:30.282Z,33.86
2018-07-27T12:26:30.251Z,33.81
2018-07-27T12:27:30.227Z,33.90
2018-07-27T12:28:30.210Z,34.02
2018-07-27T12:29:30.183Z,34.01
2018-07-27T12:30:30.159Z,34.11
2018-07-27T12:31:30.133Z,34.14
2018-07-27T12:32:30.107Z,34.24
2018-07-27T12:33:30.083Z,34.32
2018-07-27T12:34:30.061Z,34.33
2018-07-27T12:35:30.039Z,34.27
2018-07-27T12:36:30.014Z,34.20
2018-07-27T12:37:29.995Z,34.30
2018-07-27T12:38:29.963Z,34.25
2018-07-27T12:39:29.941Z,34.20
2018-07-27T12:40:29.920Z,34.13
2018-07-27T12:41:29.898Z,34.14
2018-07-27T12:42:29.878Z,34.05
2018-07-27T12:43:29.849Z,34.03
2018-07-27T12:44:29.828Z,34.08
2018-07-27T12:45:29.797Z,34.06
2018-07-27T12:46:29.774Z,34.13
2018-07-27T12:47:29.752Z,34.05
2018-07-27T12:48:29.730Z,34.10
2018-07-27T12:49:29.710Z,34.18
2018-07-27T12:50:29.690Z,34.16
2018-07-27T12:51:29.659Z,34.14
2018-07-27T12:52:29.633Z,34.13
2018-07-27T12:53:29.609Z,34.05
2018-07-27T12:54:29.596Z,33.98
2018-07-27T12:55:29.563Z,34.03
2018-07-27T12:56:29.539Z,34.01
2018-07-27T12:57:29.514Z,33.99
2018-07-27T12:58:29.491Z,33.96
2018-07-27T12:59:29.491Z,33.90
2018-07-27T13:00:29.448Z,33.94
2018-07-27T13:01:29.429Z,34.11
2018-07-27T13:02:29.401Z,34.25
2018-07-27T13:03:29.378Z,34.16
2018-07-27T13:04:29.352Z,34.29
2018-07-27T13:05:29.380Z,34.24
2018-07-27T13:06:29.299Z,34.38
2018-07-27T13:07:29.278Z,34.29
2018-07-27T13:08:29.257Z,34.30
2018-07-27T13:09:29.236Z,34.29
2018-07-27T13:10:29.206Z,34.25
2018-07-27T13:11:29.188Z,34.23
2018-07-27T13:12:29.169Z,34.10
2018-07-27T13:13:29.142Z,34.01
2018-07-27T13:14:29.117Z,34.06
2018-07-27T13:15:29.094Z,33.90
2018-07-27T13:16:29.065Z,34.13
2018-07-27T13:17:29.040Z,34.03
2018-07-27T13:18:29.019Z,34.06
2018-07-27T13:19:29.001Z,33.92
2018-07-27T13:20:28.973Z,33.92
2018-07-27T13:21:28.953Z,34.13